This is the latest recevied weather packets stored in our database for station/object KC3ULW-13. If no packets are shown the sender has not sent any weather packets the latest 10 day(s).
| Time | Temp. | Humidity | Pressure | Rain* | Wind** | Luminosity | Snow |
|---|---|---|---|---|---|---|---|
| 1777120855 | 15.56° C | 90% | 1010.8 hPa | 7.87 mm | - | 47 W/m² | - |
| 1777120550 | 15° C | 89% | 1011.1 hPa | 13.72 mm | - | 17 W/m² | - |
| 1777120245 | 15.56° C | 89% | 1011.3 hPa | 13.72 mm | - | 12 W/m² | - |
| 1777119941 | 15.56° C | 88% | 1011 hPa | 3.05 mm | - | 14 W/m² | - |
| 1777119638 | 15.56° C | 88% | 1011 hPa | 1.78 mm | - | 14 W/m² | - |
| 1777119333 | 15.56° C | 87% | 1010.8 hPa | 3.05 mm | - | 26 W/m² | - |
| 1777119028 | 15.56° C | 87% | 1010.6 hPa | 1.27 mm | - | 19 W/m² | - |
| 1777118724 | 15.56° C | 87% | 1010.7 hPa | 0 mm | - | 10 W/m² | - |
| 1777118420 | 15.56° C | 86% | 1010.6 hPa | 0 mm | - | 13 W/m² | - |
| 1777118116 | 15.56° C | 86% | 1010.5 hPa | 1.78 mm | - | 16 W/m² | - |
| 1777117813 | 15.56° C | 86% | 1010.4 hPa | 1.78 mm | - | 24 W/m² | - |
| 1777117510 | 15.56° C | 85% | 1010.2 hPa | 0 mm | - | 25 W/m² | - |
| 1777117209 | 15.56° C | 85% | 1010 hPa | 0 mm | - | 16 W/m² | - |
| 1777116908 | 15.56° C | 85% | 1010.3 hPa | 0 mm | - | 14 W/m² | - |
| 1777116604 | 15.56° C | 84% | 1010.2 hPa | 0 mm | - | 12 W/m² | - |
| 1777116300 | 16.11° C | 83% | 1010 hPa | 0 mm | - | 11 W/m² | - |
| 1777115995 | 15.56° C | 83% | 1010 hPa | 0 mm | - | 11 W/m² | - |
| 1777115690 | 15.56° C | 83% | 1009.9 hPa | 0 mm | - | 10 W/m² | - |
| 1777115387 | 15.56° C | 83% | 1010 hPa | 0 mm | - | 8 W/m² | - |
| 1777115083 | 15.56° C | 82% | 1009.8 hPa | 0 mm | - | 8 W/m² | - |
| 1777114780 | 15.56° C | 82% | 1009.9 hPa | 0 mm | - | 6 W/m² | - |
| 1777114476 | 15.56° C | 81% | 1009.7 hPa | 0 mm | - | 5 W/m² | - |
| 1777114171 | 15.56° C | 81% | 1009.6 hPa | 0 mm | - | 5 W/m² | - |
| 1777113867 | 15.56° C | 81% | 1009.7 hPa | 0 mm | - | 3 W/m² | - |
| 1777113566 | 15.56° C | 81% | 1009.8 hPa | 0 mm | - | 1 W/m² | - |
* Rain latest hour (hover to see other rain measurements)
** Current wind speed in m/s (hover to see current wind gust speed)